sensor_id;sensor_type;location;lat;lon;timestamp;temperature;humidity
35085;SHT85;21267;51.032;6.998;2023-07-31T00:01:39;17.18;90.52
35085;SHT85;21267;51.032;6.998;2023-07-31T00:04:06;17.23;90.19
35085;SHT85;21267;51.032;6.998;2023-07-31T00:06:33;17.27;89.95
35085;SHT85;21267;51.032;6.998;2023-07-31T00:09:08;17.32;89.73
35085;SHT85;21267;51.032;6.998;2023-07-31T00:11:34;17.32;89.82
35085;SHT85;21267;51.032;6.998;2023-07-31T00:14:01;17.37;89.09
35085;SHT85;21267;51.032;6.998;2023-07-31T00:16:28;17.40;88.92
35085;SHT85;21267;51.032;6.998;2023-07-31T00:18:57;17.32;89.35
35085;SHT85;21267;51.032;6.998;2023-07-31T00:21:24;17.37;89.01
35085;SHT85;21267;51.032;6.998;2023-07-31T00:23:50;17.34;89.21
35085;SHT85;21267;51.032;6.998;2023-07-31T00:26:17;17.30;89.69
35085;SHT85;21267;51.032;6.998;2023-07-31T00:28:44;17.26;89.84
35085;SHT85;21267;51.032;6.998;2023-07-31T00:31:13;17.31;89.44
35085;SHT85;21267;51.032;6.998;2023-07-31T00:33:40;17.31;89.27
35085;SHT85;21267;51.032;6.998;2023-07-31T00:36:07;17.34;89.17
35085;SHT85;21267;51.032;6.998;2023-07-31T00:38:34;17.37;88.98
35085;SHT85;21267;51.032;6.998;2023-07-31T00:41:01;17.30;89.26
35085;SHT85;21267;51.032;6.998;2023-07-31T00:43:28;17.40;88.94
35085;SHT85;21267;51.032;6.998;2023-07-31T00:45:55;17.38;88.78
35085;SHT85;21267;51.032;6.998;2023-07-31T00:48:22;17.41;88.80
35085;SHT85;21267;51.032;6.998;2023-07-31T00:50:55;17.45;88.48
35085;SHT85;21267;51.032;6.998;2023-07-31T00:53:22;17.47;88.16
35085;SHT85;21267;51.032;6.998;2023-07-31T00:55:49;17.55;87.53
35085;SHT85;21267;51.032;6.998;2023-07-31T00:58:16;17.51;88.00
35085;SHT85;21267;51.032;6.998;2023-07-31T01:00:42;17.55;87.87
35085;SHT85;21267;51.032;6.998;2023-07-31T01:03:11;17.51;87.63
35085;SHT85;21267;51.032;6.998;2023-07-31T01:06:04;17.54;87.45
35085;SHT85;21267;51.032;6.998;2023-07-31T01:08:44;17.51;87.60
35085;SHT85;21267;51.032;6.998;2023-07-31T01:11:25;17.59;87.08
35085;SHT85;21267;51.032;6.998;2023-07-31T01:13:54;17.61;87.08
35085;SHT85;21267;51.032;6.998;2023-07-31T01:16:21;17.58;86.68
35085;SHT85;21267;51.032;6.998;2023-07-31T01:18:48;17.59;86.77
35085;SHT85;21267;51.032;6.998;2023-07-31T01:27:13;17.68;85.74
35085;SHT85;21267;51.032;6.998;2023-07-31T01:29:50;17.68;85.56
35085;SHT85;21267;51.032;6.998;2023-07-31T01:32:21;17.71;85.53
35085;SHT85;21267;51.032;6.998;2023-07-31T01:34:50;17.72;85.50
35085;SHT85;21267;51.032;6.998;2023-07-31T01:37:17;17.72;85.27
35085;SHT85;21267;51.032;6.998;2023-07-31T01:39:44;17.71;85.38
35085;SHT85;21267;51.032;6.998;2023-07-31T01:42:11;17.78;85.06
35085;SHT85;21267;51.032;6.998;2023-07-31T01:44:39;17.73;85.35
35085;SHT85;21267;51.032;6.998;2023-07-31T01:47:05;17.69;85.34
35085;SHT85;21267;51.032;6.998;2023-07-31T01:49:32;17.78;85.15
35085;SHT85;21267;51.032;6.998;2023-07-31T01:51:59;17.72;85.31
35085;SHT85;21267;51.032;6.998;2023-07-31T01:54:26;17.73;85.37
35085;SHT85;21267;51.032;6.998;2023-07-31T01:56:53;17.79;84.93
35085;SHT85;21267;51.032;6.998;2023-07-31T01:59:23;17.75;84.96
35085;SHT85;21267;51.032;6.998;2023-07-31T02:01:49;17.78;85.31
35085;SHT85;21267;51.032;6.998;2023-07-31T02:04:19;17.81;85.04
35085;SHT85;21267;51.032;6.998;2023-07-31T02:06:46;17.79;85.24
35085;SHT85;21267;51.032;6.998;2023-07-31T02:09:13;17.86;84.91
35085;SHT85;21267;51.032;6.998;2023-07-31T02:11:40;17.86;84.51
35085;SHT85;21267;51.032;6.998;2023-07-31T02:14:06;17.89;84.65
35085;SHT85;21267;51.032;6.998;2023-07-31T02:16:34;17.86;84.84
35085;SHT85;21267;51.032;6.998;2023-07-31T02:19:01;17.89;84.72
35085;SHT85;21267;51.032;6.998;2023-07-31T02:21:28;17.87;85.06
35085;SHT85;21267;51.032;6.998;2023-07-31T02:23:55;17.99;84.72
35085;SHT85;21267;51.032;6.998;2023-07-31T02:26:22;18.03;84.68
35085;SHT85;21267;51.032;6.998;2023-07-31T02:28:48;18.06;84.77
35085;SHT85;21267;51.032;6.998;2023-07-31T02:31:15;18.06;84.74
35085;SHT85;21267;51.032;6.998;2023-07-31T02:33:42;18.08;84.70
35085;SHT85;21267;51.032;6.998;2023-07-31T02:36:08;18.06;84.67
35085;SHT85;21267;51.032;6.998;2023-07-31T02:38:35;18.08;84.87
35085;SHT85;21267;51.032;6.998;2023-07-31T02:41:02;18.03;85.04
35085;SHT85;21267;51.032;6.998;2023-07-31T02:43:28;18.08;85.02
35085;SHT85;21267;51.032;6.998;2023-07-31T02:45:55;18.03;85.05
35085;SHT85;21267;51.032;6.998;2023-07-31T02:48:22;18.03;85.40
35085;SHT85;21267;51.032;6.998;2023-07-31T02:50:49;18.00;85.41
35085;SHT85;21267;51.032;6.998;2023-07-31T02:53:15;18.02;85.22
35085;SHT85;21267;51.032;6.998;2023-07-31T02:55:42;18.08;84.99
35085;SHT85;21267;51.032;6.998;2023-07-31T02:58:09;18.03;85.13
35085;SHT85;21267;51.032;6.998;2023-07-31T03:00:35;18.12;84.97
35085;SHT85;21267;51.032;6.998;2023-07-31T03:03:03;18.12;84.92
35085;SHT85;21267;51.032;6.998;2023-07-31T03:05:30;18.10;85.11
35085;SHT85;21267;51.032;6.998;2023-07-31T03:07:57;18.13;84.77
35085;SHT85;21267;51.032;6.998;2023-07-31T03:10:25;18.13;84.54
35085;SHT85;21267;51.032;6.998;2023-07-31T03:12:52;18.09;84.88
35085;SHT85;21267;51.032;6.998;2023-07-31T03:15:18;18.16;84.39
35085;SHT85;21267;51.032;6.998;2023-07-31T03:17:45;18.14;84.39
35085;SHT85;21267;51.032;6.998;2023-07-31T03:20:12;18.13;84.71
35085;SHT85;21267;51.032;6.998;2023-07-31T03:22:39;18.12;84.60
35085;SHT85;21267;51.032;6.998;2023-07-31T03:25:06;18.12;84.71
35085;SHT85;21267;51.032;6.998;2023-07-31T03:27:33;18.16;84.59
35085;SHT85;21267;51.032;6.998;2023-07-31T03:29:59;18.16;84.64
35085;SHT85;21267;51.032;6.998;2023-07-31T03:32:28;18.16;84.59
35085;SHT85;21267;51.032;6.998;2023-07-31T03:34:54;18.19;84.45
35085;SHT85;21267;51.032;6.998;2023-07-31T03:37:21;18.19;84.14
35085;SHT85;21267;51.032;6.998;2023-07-31T03:39:48;18.21;84.51
35085;SHT85;21267;51.032;6.998;2023-07-31T03:42:14;18.20;84.61
35085;SHT85;21267;51.032;6.998;2023-07-31T03:44:41;18.20;84.34
35085;SHT85;21267;51.032;6.998;2023-07-31T03:47:08;18.21;84.28
35085;SHT85;21267;51.032;6.998;2023-07-31T03:49:35;18.16;84.54
35085;SHT85;21267;51.032;6.998;2023-07-31T03:52:01;18.14;84.78
35085;SHT85;21267;51.032;6.998;2023-07-31T03:54:28;18.14;84.73
35085;SHT85;21267;51.032;6.998;2023-07-31T03:56:55;18.13;84.97
35085;SHT85;21267;51.032;6.998;2023-07-31T03:59:21;18.10;84.93
35085;SHT85;21267;51.032;6.998;2023-07-31T04:01:48;18.09;85.08
35085;SHT85;21267;51.032;6.998;2023-07-31T04:04:15;18.09;85.13
35085;SHT85;21267;51.032;6.998;2023-07-31T04:06:41;18.03;85.42
35085;SHT85;21267;51.032;6.998;2023-07-31T04:09:08;18.00;85.39
35085;SHT85;21267;51.032;6.998;2023-07-31T04:11:35;18.00;85.76
35085;SHT85;21267;51.032;6.998;2023-07-31T04:14:02;17.96;85.89
35085;SHT85;21267;51.032;6.998;2023-07-31T04:16:28;17.95;85.93
35085;SHT85;21267;51.032;6.998;2023-07-31T04:18:55;17.98;85.81
35085;SHT85;21267;51.032;6.998;2023-07-31T04:21:22;17.99;85.79
35085;SHT85;21267;51.032;6.998;2023-07-31T04:23:49;18.02;85.66
35085;SHT85;21267;51.032;6.998;2023-07-31T04:26:16;17.99;85.83
35085;SHT85;21267;51.032;6.998;2023-07-31T04:28:45;18.02;85.81
35085;SHT85;21267;51.032;6.998;2023-07-31T04:31:11;18.00;85.87
35085;SHT85;21267;51.032;6.998;2023-07-31T04:33:38;18.06;85.67
35085;SHT85;21267;51.032;6.998;2023-07-31T04:36:05;18.06;85.87
35085;SHT85;21267;51.032;6.998;2023-07-31T04:38:32;18.03;86.05
35085;SHT85;21267;51.032;6.998;2023-07-31T04:40:58;18.08;86.09
35085;SHT85;21267;51.032;6.998;2023-07-31T04:43:27;18.08;86.51
35085;SHT85;21267;51.032;6.998;2023-07-31T04:45:54;18.09;86.70
35085;SHT85;21267;51.032;6.998;2023-07-31T04:48:21;18.08;86.56
35085;SHT85;21267;51.032;6.998;2023-07-31T04:50:47;18.06;86.15
35085;SHT85;21267;51.032;6.998;2023-07-31T04:53:14;18.13;85.76
35085;SHT85;21267;51.032;6.998;2023-07-31T04:55:41;18.14;85.91
35085;SHT85;21267;51.032;6.998;2023-07-31T04:58:09;18.16;86.03
35085;SHT85;21267;51.032;6.998;2023-07-31T05:00:35;18.12;85.85
35085;SHT85;21267;51.032;6.998;2023-07-31T05:03:02;18.12;85.61
35085;SHT85;21267;51.032;6.998;2023-07-31T05:05:29;18.17;85.67
35085;SHT85;21267;51.032;6.998;2023-07-31T05:07:56;18.17;85.67
35085;SHT85;21267;51.032;6.998;2023-07-31T05:10:22;18.19;85.28
35085;SHT85;21267;51.032;6.998;2023-07-31T05:12:49;18.27;84.94
35085;SHT85;21267;51.032;6.998;2023-07-31T05:15:16;18.29;84.95
35085;SHT85;21267;51.032;6.998;2023-07-31T05:17:43;18.37;84.76
35085;SHT85;21267;51.032;6.998;2023-07-31T05:20:10;18.43;84.33
35085;SHT85;21267;51.032;6.998;2023-07-31T05:22:38;18.48;84.30
35085;SHT85;21267;51.032;6.998;2023-07-31T05:25:05;18.55;83.91
35085;SHT85;21267;51.032;6.998;2023-07-31T05:27:32;18.60;83.79
35085;SHT85;21267;51.032;6.998;2023-07-31T05:29:59;18.72;83.05
35085;SHT85;21267;51.032;6.998;2023-07-31T05:32:26;18.81;82.92
35085;SHT85;21267;51.032;6.998;2023-07-31T05:34:53;18.82;82.90
35085;SHT85;21267;51.032;6.998;2023-07-31T05:37:20;18.77;82.86
35085;SHT85;21267;51.032;6.998;2023-07-31T05:39:46;18.80;82.72
35085;SHT85;21267;51.032;6.998;2023-07-31T05:42:13;18.78;82.47
35085;SHT85;21267;51.032;6.998;2023-07-31T05:44:40;18.81;82.40
35085;SHT85;21267;51.032;6.998;2023-07-31T05:47:07;18.78;82.56
35085;SHT85;21267;51.032;6.998;2023-07-31T05:49:34;18.80;82.28
35085;SHT85;21267;51.032;6.998;2023-07-31T05:52:01;18.77;82.21
35085;SHT85;21267;51.032;6.998;2023-07-31T05:54:28;18.71;82.40
35085;SHT85;21267;51.032;6.998;2023-07-31T05:56:55;18.71;82.40
35085;SHT85;21267;51.032;6.998;2023-07-31T05:59:23;18.72;82.32
35085;SHT85;21267;51.032;6.998;2023-07-31T06:01:50;18.72;82.30
35085;SHT85;21267;51.032;6.998;2023-07-31T06:04:17;18.70;82.58
35085;SHT85;21267;51.032;6.998;2023-07-31T06:06:44;18.50;83.40
35085;SHT85;21267;51.032;6.998;2023-07-31T06:09:11;18.23;84.98
35085;SHT85;21267;51.032;6.998;2023-07-31T06:11:38;17.98;86.20
35085;SHT85;21267;51.032;6.998;2023-07-31T06:14:05;17.65;87.53
35085;SHT85;21267;51.032;6.998;2023-07-31T06:16:33;17.54;88.16
35085;SHT85;21267;51.032;6.998;2023-07-31T06:19:02;17.38;89.20
35085;SHT85;21267;51.032;6.998;2023-07-31T06:21:30;17.27;89.65
35085;SHT85;21267;51.032;6.998;2023-07-31T06:23:57;17.37;88.83
35085;SHT85;21267;51.032;6.998;2023-07-31T06:26:26;17.40;88.63
35085;SHT85;21267;51.032;6.998;2023-07-31T06:28:54;17.41;89.01
35085;SHT85;21267;51.032;6.998;2023-07-31T06:33:39;17.48;89.12
35085;SHT85;21267;51.032;6.998;2023-07-31T06:36:06;17.50;88.79
35085;SHT85;21267;51.032;6.998;2023-07-31T06:38:33;17.52;88.92
35085;SHT85;21267;51.032;6.998;2023-07-31T06:41:01;17.51;89.36
35085;SHT85;21267;51.032;6.998;2023-07-31T06:43:28;17.51;89.39
35085;SHT85;21267;51.032;6.998;2023-07-31T06:45:55;17.52;89.41
35085;SHT85;21267;51.032;6.998;2023-07-31T06:48:22;17.52;89.74
35085;SHT85;21267;51.032;6.998;2023-07-31T06:50:48;17.58;89.67
35085;SHT85;21267;51.032;6.998;2023-07-31T06:53:15;17.63;88.76
35085;SHT85;21267;51.032;6.998;2023-07-31T06:55:42;17.73;88.63
35085;SHT85;21267;51.032;6.998;2023-07-31T06:58:08;17.82;88.86
35085;SHT85;21267;51.032;6.998;2023-07-31T07:00:35;17.87;88.50
35085;SHT85;21267;51.032;6.998;2023-07-31T07:03:02;17.95;88.71
35085;SHT85;21267;51.032;6.998;2023-07-31T07:05:29;17.96;88.34
35085;SHT85;21267;51.032;6.998;2023-07-31T07:07:55;17.99;87.67
35085;SHT85;21267;51.032;6.998;2023-07-31T07:10:22;18.02;87.91
35085;SHT85;21267;51.032;6.998;2023-07-31T07:12:49;18.08;87.62
35085;SHT85;21267;51.032;6.998;2023-07-31T07:15:16;18.06;87.71
35085;SHT85;21267;51.032;6.998;2023-07-31T07:17:43;18.08;87.73
35085;SHT85;21267;51.032;6.998;2023-07-31T07:20:10;18.08;87.57
35085;SHT85;21267;51.032;6.998;2023-07-31T07:22:38;18.05;87.80
35085;SHT85;21267;51.032;6.998;2023-07-31T07:25:05;18.06;87.72
35085;SHT85;21267;51.032;6.998;2023-07-31T07:27:33;18.09;87.56
35085;SHT85;21267;51.032;6.998;2023-07-31T07:30:00;18.05;87.68
35085;SHT85;21267;51.032;6.998;2023-07-31T07:32:27;17.92;88.84
35085;SHT85;21267;51.032;6.998;2023-07-31T07:34:55;17.71;90.00
35085;SHT85;21267;51.032;6.998;2023-07-31T07:37:21;17.62;90.23
35085;SHT85;21267;51.032;6.998;2023-07-31T07:39:48;17.52;90.59
35085;SHT85;21267;51.032;6.998;2023-07-31T07:42:16;17.37;91.85
35085;SHT85;21267;51.032;6.998;2023-07-31T07:44:43;17.27;92.40
35085;SHT85;21267;51.032;6.998;2023-07-31T07:47:09;17.26;92.70
35085;SHT85;21267;51.032;6.998;2023-07-31T07:49:36;17.23;92.82
35085;SHT85;21267;51.032;6.998;2023-07-31T07:52:03;17.24;93.04
35085;SHT85;21267;51.032;6.998;2023-07-31T07:54:30;17.21;92.80
35085;SHT85;21267;51.032;6.998;2023-07-31T07:56:57;17.20;93.16
35085;SHT85;21267;51.032;6.998;2023-07-31T07:59:24;17.20;93.16
35085;SHT85;21267;51.032;6.998;2023-07-31T08:01:51;17.17;93.48
35085;SHT85;21267;51.032;6.998;2023-07-31T08:04:18;17.20;93.70
35085;SHT85;21267;51.032;6.998;2023-07-31T08:06:44;17.20;94.03
35085;SHT85;21267;51.032;6.998;2023-07-31T08:09:11;17.24;93.54
35085;SHT85;21267;51.032;6.998;2023-07-31T08:11:38;17.24;93.84
35085;SHT85;21267;51.032;6.998;2023-07-31T08:14:04;17.27;92.98
35085;SHT85;21267;51.032;6.998;2023-07-31T08:16:31;17.17;91.62
35085;SHT85;21267;51.032;6.998;2023-07-31T08:18:58;17.14;92.41
35085;SHT85;21267;51.032;6.998;2023-07-31T08:21:26;17.21;92.64
35085;SHT85;21267;51.032;6.998;2023-07-31T08:23:54;17.13;91.38
35085;SHT85;21267;51.032;6.998;2023-07-31T08:26:21;17.15;90.59
35085;SHT85;21267;51.032;6.998;2023-07-31T08:28:50;17.17;90.85
35085;SHT85;21267;51.032;6.998;2023-07-31T08:31:16;17.18;91.87
35085;SHT85;21267;51.032;6.998;2023-07-31T08:33:43;17.26;90.86
35085;SHT85;21267;51.032;6.998;2023-07-31T08:36:10;17.26;91.45
35085;SHT85;21267;51.032;6.998;2023-07-31T08:38:36;17.32;90.68
35085;SHT85;21267;51.032;6.998;2023-07-31T08:41:05;17.38;90.29
35085;SHT85;21267;51.032;6.998;2023-07-31T08:43:33;17.47;90.29
35085;SHT85;21267;51.032;6.998;2023-07-31T08:46:01;17.52;90.72
35085;SHT85;21267;51.032;6.998;2023-07-31T08:48:29;17.52;90.44
35085;SHT85;21267;51.032;6.998;2023-07-31T08:50:56;17.50;90.34
35085;SHT85;21267;51.032;6.998;2023-07-31T08:53:22;17.58;89.13
35085;SHT85;21267;51.032;6.998;2023-07-31T08:55:49;17.59;88.70
35085;SHT85;21267;51.032;6.998;2023-07-31T08:58:17;17.59;89.63
35085;SHT85;21267;51.032;6.998;2023-07-31T09:00:45;17.61;89.38
35085;SHT85;21267;51.032;6.998;2023-07-31T09:03:17;17.63;89.68
35085;SHT85;21267;51.032;6.998;2023-07-31T09:05:46;17.69;90.24
35085;SHT85;21267;51.032;6.998;2023-07-31T09:08:15;17.69;90.19
35085;SHT85;21267;51.032;6.998;2023-07-31T09:10:45;17.76;89.82
35085;SHT85;21267;51.032;6.998;2023-07-31T09:13:16;17.72;89.47
35085;SHT85;21267;51.032;6.998;2023-07-31T09:15:46;17.71;89.46
35085;SHT85;21267;51.032;6.998;2023-07-31T09:18:13;17.75;89.57
35085;SHT85;21267;51.032;6.998;2023-07-31T09:20:45;17.78;89.53
35085;SHT85;21267;51.032;6.998;2023-07-31T09:23:13;17.85;88.64
35085;SHT85;21267;51.032;6.998;2023-07-31T09:25:43;17.91;88.68
35085;SHT85;21267;51.032;6.998;2023-07-31T09:28:11;17.78;88.45
35085;SHT85;21267;51.032;6.998;2023-07-31T09:30:48;17.75;89.30
35085;SHT85;21267;51.032;6.998;2023-07-31T09:33:15;17.73;89.11
35085;SHT85;21267;51.032;6.998;2023-07-31T09:35:42;17.81;89.36
35085;SHT85;21267;51.032;6.998;2023-07-31T09:38:11;17.83;88.98
35085;SHT85;21267;51.032;6.998;2023-07-31T09:40:43;17.87;88.63
35085;SHT85;21267;51.032;6.998;2023-07-31T09:43:18;17.98;88.41
35085;SHT85;21267;51.032;6.998;2023-07-31T09:45:46;18.02;87.96
35085;SHT85;21267;51.032;6.998;2023-07-31T09:48:16;18.10;87.94
35085;SHT85;21267;51.032;6.998;2023-07-31T09:50:48;18.16;87.61
35085;SHT85;21267;51.032;6.998;2023-07-31T09:53:16;18.20;87.66
35085;SHT85;21267;51.032;6.998;2023-07-31T09:55:44;18.30;87.73
35085;SHT85;21267;51.032;6.998;2023-07-31T09:58:12;18.31;87.79
35085;SHT85;21267;51.032;6.998;2023-07-31T10:00:40;18.41;87.43
35085;SHT85;21267;51.032;6.998;2023-07-31T10:03:08;18.50;87.95
35085;SHT85;21267;51.032;6.998;2023-07-31T10:05:50;18.52;86.87
35085;SHT85;21267;51.032;6.998;2023-07-31T10:08:21;18.57;86.65
35085;SHT85;21267;51.032;6.998;2023-07-31T10:10:50;18.63;86.79
35085;SHT85;21267;51.032;6.998;2023-07-31T10:13:17;18.63;86.56
35085;SHT85;21267;51.032;6.998;2023-07-31T10:15:45;18.67;86.59
35085;SHT85;21267;51.032;6.998;2023-07-31T10:18:12;18.74;86.60
35085;SHT85;21267;51.032;6.998;2023-07-31T10:20:40;18.74;86.13
35085;SHT85;21267;51.032;6.998;2023-07-31T10:23:08;18.84;85.82
35085;SHT85;21267;51.032;6.998;2023-07-31T10:25:38;18.89;85.43
35085;SHT85;21267;51.032;6.998;2023-07-31T10:28:05;19.05;85.41
35085;SHT85;21267;51.032;6.998;2023-07-31T10:30:33;19.12;84.58
35085;SHT85;21267;51.032;6.998;2023-07-31T10:33:02;19.13;85.07
35085;SHT85;21267;51.032;6.998;2023-07-31T10:35:42;19.35;84.46
35085;SHT85;21267;51.032;6.998;2023-07-31T10:38:10;19.28;84.84
35085;SHT85;21267;51.032;6.998;2023-07-31T10:40:38;19.39;84.52
35085;SHT85;21267;51.032;6.998;2023-07-31T10:43:33;19.28;84.31
35085;SHT85;21267;51.032;6.998;2023-07-31T10:46:11;19.08;84.40
35085;SHT85;21267;51.032;6.998;2023-07-31T10:48:41;18.99;84.35
35085;SHT85;21267;51.032;6.998;2023-07-31T10:51:22;18.89;84.64
35085;SHT85;21267;51.032;6.998;2023-07-31T10:54:15;18.99;84.62
35085;SHT85;21267;51.032;6.998;2023-07-31T10:56:53;19.05;84.19
35085;SHT85;21267;51.032;6.998;2023-07-31T10:59:26;19.16;83.94
35085;SHT85;21267;51.032;6.998;2023-07-31T11:01:56;19.22;84.00
35085;SHT85;21267;51.032;6.998;2023-07-31T11:04:29;19.16;84.62
35085;SHT85;21267;51.032;6.998;2023-07-31T11:07:00;18.94;86.13
35085;SHT85;21267;51.032;6.998;2023-07-31T11:09:32;18.68;86.35
35085;SHT85;21267;51.032;6.998;2023-07-31T11:11:59;18.64;87.15
35085;SHT85;21267;51.032;6.998;2023-07-31T11:14:26;18.77;86.97
35085;SHT85;21267;51.032;6.998;2023-07-31T11:16:53;18.94;86.05
35085;SHT85;21267;51.032;6.998;2023-07-31T11:19:21;19.18;85.38
35085;SHT85;21267;51.032;6.998;2023-07-31T11:21:49;19.40;84.79
35085;SHT85;21267;51.032;6.998;2023-07-31T11:24:17;19.73;84.30
35085;SHT85;21267;51.032;6.998;2023-07-31T11:26:53;19.98;83.36
35085;SHT85;21267;51.032;6.998;2023-07-31T11:29:20;20.19;82.50
35085;SHT85;21267;51.032;6.998;2023-07-31T11:31:47;20.59;81.54
35085;SHT85;21267;51.032;6.998;2023-07-31T11:34:17;20.83;81.47
35085;SHT85;21267;51.032;6.998;2023-07-31T11:36:56;20.73;80.89
35085;SHT85;21267;51.032;6.998;2023-07-31T11:39:22;20.67;80.96
35085;SHT85;21267;51.032;6.998;2023-07-31T11:42:01;20.42;81.24
35085;SHT85;21267;51.032;6.998;2023-07-31T11:44:37;20.42;81.72
35085;SHT85;21267;51.032;6.998;2023-07-31T11:47:07;20.45;80.84
35085;SHT85;21267;51.032;6.998;2023-07-31T11:49:36;20.49;80.00
35085;SHT85;21267;51.032;6.998;2023-07-31T11:52:03;20.60;79.17
35085;SHT85;21267;51.032;6.998;2023-07-31T11:54:30;20.66;78.82
35085;SHT85;21267;51.032;6.998;2023-07-31T11:56:57;20.81;79.04
35085;SHT85;21267;51.032;6.998;2023-07-31T11:59:27;20.80;78.64
35085;SHT85;21267;51.032;6.998;2023-07-31T12:01:54;20.70;79.25
35085;SHT85;21267;51.032;6.998;2023-07-31T12:04:21;20.79;79.44
35085;SHT85;21267;51.032;6.998;2023-07-31T12:06:48;20.69;78.84
35085;SHT85;21267;51.032;6.998;2023-07-31T12:09:16;20.59;78.97
35085;SHT85;21267;51.032;6.998;2023-07-31T12:11:44;20.66;79.15
35085;SHT85;21267;51.032;6.998;2023-07-31T12:14:27;20.59;79.16
35085;SHT85;21267;51.032;6.998;2023-07-31T12:16:59;20.50;79.21
35085;SHT85;21267;51.032;6.998;2023-07-31T12:19:26;20.43;79.49
35085;SHT85;21267;51.032;6.998;2023-07-31T12:22:01;20.46;79.46
35085;SHT85;21267;51.032;6.998;2023-07-31T12:24:28;20.42;79.59
35085;SHT85;21267;51.032;6.998;2023-07-31T12:26:55;20.45;79.73
35085;SHT85;21267;51.032;6.998;2023-07-31T12:29:22;20.52;79.95
35085;SHT85;21267;51.032;6.998;2023-07-31T12:31:49;20.46;80.10
35085;SHT85;21267;51.032;6.998;2023-07-31T12:34:16;20.26;80.04
35085;SHT85;21267;51.032;6.998;2023-07-31T12:36:46;20.26;80.32
35085;SHT85;21267;51.032;6.998;2023-07-31T12:39:15;20.22;80.25
35085;SHT85;21267;51.032;6.998;2023-07-31T12:41:43;20.24;79.88
35085;SHT85;21267;51.032;6.998;2023-07-31T12:44:10;20.29;79.67
35085;SHT85;21267;51.032;6.998;2023-07-31T12:46:37;20.42;79.59
35085;SHT85;21267;51.032;6.998;2023-07-31T12:49:04;20.53;79.22
35085;SHT85;21267;51.032;6.998;2023-07-31T12:51:31;20.69;79.06
35085;SHT85;21267;51.032;6.998;2023-07-31T12:53:58;20.55;79.24
35085;SHT85;21267;51.032;6.998;2023-07-31T12:56:25;20.60;78.93
35085;SHT85;21267;51.032;6.998;2023-07-31T12:58:51;20.53;79.24
35085;SHT85;21267;51.032;6.998;2023-07-31T13:01:18;20.77;79.04
35085;SHT85;21267;51.032;6.998;2023-07-31T13:03:45;20.77;78.58
35085;SHT85;21267;51.032;6.998;2023-07-31T13:06:12;20.75;78.82
35085;SHT85;21267;51.032;6.998;2023-07-31T13:08:40;20.75;79.10
35085;SHT85;21267;51.032;6.998;2023-07-31T13:11:06;20.96;78.79
35085;SHT85;21267;51.032;6.998;2023-07-31T13:13:33;21.08;78.37
35085;SHT85;21267;51.032;6.998;2023-07-31T13:16:00;21.01;77.88
35085;SHT85;21267;51.032;6.998;2023-07-31T13:18:27;20.90;77.89
35085;SHT85;21267;51.032;6.998;2023-07-31T13:20:53;20.97;77.80
35085;SHT85;21267;51.032;6.998;2023-07-31T13:23:23;20.86;77.92
35085;SHT85;21267;51.032;6.998;2023-07-31T13:25:49;20.96;78.21
35085;SHT85;21267;51.032;6.998;2023-07-31T13:28:16;20.91;78.08
35085;SHT85;21267;51.032;6.998;2023-07-31T13:30:43;20.81;77.72
35085;SHT85;21267;51.032;6.998;2023-07-31T13:33:10;20.72;77.75
35085;SHT85;21267;51.032;6.998;2023-07-31T13:35:55;20.86;77.62
35085;SHT85;21267;51.032;6.998;2023-07-31T13:38:22;20.96;77.53
35085;SHT85;21267;51.032;6.998;2023-07-31T13:40:51;21.23;77.07
35085;SHT85;21267;51.032;6.998;2023-07-31T13:43:18;21.51;76.35
35085;SHT85;21267;51.032;6.998;2023-07-31T13:45:45;21.51;75.72
35085;SHT85;21267;51.032;6.998;2023-07-31T13:48:12;21.58;75.85
35085;SHT85;21267;51.032;6.998;2023-07-31T13:50:41;21.39;76.03
35085;SHT85;21267;51.032;6.998;2023-07-31T13:53:08;21.62;76.14
35085;SHT85;21267;51.032;6.998;2023-07-31T13:55:34;21.95;75.74
35085;SHT85;21267;51.032;6.998;2023-07-31T13:58:01;22.14;75.33
35085;SHT85;21267;51.032;6.998;2023-07-31T14:00:28;22.59;73.78
35085;SHT85;21267;51.032;6.998;2023-07-31T14:02:55;23.02;72.08
35085;SHT85;21267;51.032;6.998;2023-07-31T14:05:23;23.49;71.83
35085;SHT85;21267;51.032;6.998;2023-07-31T14:07:50;23.67;70.77
35085;SHT85;21267;51.032;6.998;2023-07-31T14:10:17;22.88;71.39
35085;SHT85;21267;51.032;6.998;2023-07-31T14:12:44;22.44;72.04
35085;SHT85;21267;51.032;6.998;2023-07-31T14:15:11;22.27;72.82
35085;SHT85;21267;51.032;6.998;2023-07-31T14:17:38;22.17;73.52
35085;SHT85;21267;51.032;6.998;2023-07-31T14:20:08;22.10;73.85
35085;SHT85;21267;51.032;6.998;2023-07-31T14:22:35;22.09;74.04
35085;SHT85;21267;51.032;6.998;2023-07-31T14:25:03;21.71;74.28
35085;SHT85;21267;51.032;6.998;2023-07-31T14:27:30;21.54;74.72
35085;SHT85;21267;51.032;6.998;2023-07-31T14:29:56;21.49;74.97
35085;SHT85;21267;51.032;6.998;2023-07-31T14:32:24;21.56;75.14
35085;SHT85;21267;51.032;6.998;2023-07-31T14:34:52;21.48;75.31
35085;SHT85;21267;51.032;6.998;2023-07-31T14:37:19;21.41;75.28
35085;SHT85;21267;51.032;6.998;2023-07-31T14:39:46;21.31;75.37
35085;SHT85;21267;51.032;6.998;2023-07-31T14:42:13;21.17;75.70
35085;SHT85;21267;51.032;6.998;2023-07-31T14:44:43;21.11;76.16
35085;SHT85;21267;51.032;6.998;2023-07-31T14:47:10;21.08;76.17
35085;SHT85;21267;51.032;6.998;2023-07-31T14:49:36;21.04;76.44
35085;SHT85;21267;51.032;6.998;2023-07-31T14:52:03;21.08;76.01
35085;SHT85;21267;51.032;6.998;2023-07-31T14:54:31;21.13;75.90
35085;SHT85;21267;51.032;6.998;2023-07-31T14:56:58;21.23;75.79
35085;SHT85;21267;51.032;6.998;2023-07-31T14:59:24;21.35;75.47
35085;SHT85;21267;51.032;6.998;2023-07-31T15:01:51;21.45;75.12
35085;SHT85;21267;51.032;6.998;2023-07-31T15:04:18;21.38;74.98
35085;SHT85;21267;51.032;6.998;2023-07-31T15:06:48;21.35;75.25
35085;SHT85;21267;51.032;6.998;2023-07-31T15:09:18;21.32;75.14
35085;SHT85;21267;51.032;6.998;2023-07-31T15:11:48;21.27;75.10
35085;SHT85;21267;51.032;6.998;2023-07-31T15:14:24;21.23;75.33
35085;SHT85;21267;51.032;6.998;2023-07-31T15:16:52;21.21;75.32
35085;SHT85;21267;51.032;6.998;2023-07-31T15:19:19;21.24;75.10
35085;SHT85;21267;51.032;6.998;2023-07-31T15:21:45;21.27;74.87
35085;SHT85;21267;51.032;6.998;2023-07-31T15:24:12;21.24;74.82
35085;SHT85;21267;51.032;6.998;2023-07-31T15:26:40;21.23;74.98
35085;SHT85;21267;51.032;6.998;2023-07-31T15:29:08;21.30;74.80
35085;SHT85;21267;51.032;6.998;2023-07-31T15:31:39;21.28;74.85
35085;SHT85;21267;51.032;6.998;2023-07-31T15:34:07;21.24;74.89
35085;SHT85;21267;51.032;6.998;2023-07-31T15:36:34;21.18;74.83
35085;SHT85;21267;51.032;6.998;2023-07-31T15:39:01;21.20;74.96
35085;SHT85;21267;51.032;6.998;2023-07-31T15:41:28;21.18;74.86
35085;SHT85;21267;51.032;6.998;2023-07-31T15:43:56;21.18;75.27